Time;durP1;ratioP1;P1;durP2;ratioP2;P2;SDS_P1;SDS_P2;PMS_P1;PMS_P2;Temp;Humidity;BMP_temperature;BMP_pressure;BME280_temperature;BME280_humidity;BME280_pressure;Samples;Min_cycle;Max_cycle;Signal;HPM_P1;HPM_P2
2022/08/10 00:01:39;;;;;;;;;;;23.80;66.80;;;23.25;61.56;96547.09;4209440;33;19903;-82
2022/08/10 00:04:09;;;;;;;;;;;23.80;66.80;;;23.24;62.03;96556.63;4209027;33;20119;-82
2022/08/10 00:06:37;;;;;;;;;;;23.80;66.80;;;23.25;61.47;96553.50;4232875;33;20248;-82
2022/08/10 00:09:06;;;;;;;;;;;23.80;66.80;;;23.25;61.76;96547.09;4209511;33;19902;-82
2022/08/10 00:11:34;;;;;;;;;;;23.80;66.90;;;23.24;62.00;96551.03;4232802;33;19902;-82
2022/08/10 00:14:03;;;;;;;;;;;23.80;66.90;;;23.25;61.93;96552.69;4208842;33;19902;-82
2022/08/10 00:16:32;;;;;;;;;;;23.80;67.10;;;23.24;61.67;96557.47;4209300;33;19902;-82
2022/08/10 00:19:00;;;;;;;;;;;23.80;67.10;;;23.24;62.06;96557.47;4209385;33;20084;-82
2022/08/10 00:21:30;;;;;;;;;;;23.80;67.20;;;23.24;61.96;96557.47;4232817;33;20252;-82
2022/08/10 00:23:59;;;;;;;;;;;23.80;67.20;;;23.24;62.05;96557.47;4232136;33;20230;-82
2022/08/10 00:26:27;;;;;;;;;;;23.80;67.20;;;23.24;62.21;96549.06;4209266;33;20070;-82
2022/08/10 00:28:56;;;;;;;;;;;23.80;67.10;;;23.24;62.04;96563.03;4232748;33;19902;-82
2022/08/10 00:31:25;;;;;;;;;;;23.80;67.20;;;23.24;62.08;96562.22;4209262;33;20053;-83
2022/08/10 00:33:53;;;;;;;;;;;23.80;67.10;;;23.23;61.88;96561.41;4208750;33;20133;-82
2022/08/10 00:36:22;;;;;;;;;;;23.80;68.00;;;23.24;62.09;96556.63;4209126;33;20084;-82
2022/08/10 00:38:52;;;;;;;;;;;23.80;67.20;;;23.23;62.20;96560.59;4232516;33;19971;-83
2022/08/10 00:41:20;;;;;;;;;;;23.80;67.20;;;23.22;62.20;96558.97;4208959;33;19993;-82
2022/08/10 00:43:49;;;;;;;;;;;23.80;67.10;;;23.23;62.15;96564.22;4232133;33;20018;-82
2022/08/10 00:46:17;;;;;;;;;;;23.80;67.20;;;23.21;61.92;96552.56;4209015;33;19902;-82
2022/08/10 00:48:46;;;;;;;;;;;23.80;67.10;;;23.22;62.10;96556.97;4232589;33;19964;-82
2022/08/10 00:51:14;;;;;;;;;;;23.70;67.00;;;23.22;61.98;96556.97;4209247;33;19910;-82
2022/08/10 00:53:43;;;;;;;;;;;23.80;66.90;;;23.21;61.75;96541.38;4234351;33;19909;-82
2022/08/10 00:56:13;;;;;;;;;;;23.80;67.00;;;23.22;61.83;96548.59;4211504;33;19902;-82
2022/08/10 00:58:41;;;;;;;;;;;23.70;67.20;;;23.21;61.99;96552.56;4211418;33;19955;-82
2022/08/10 01:01:10;;;;;;;;;;;23.80;67.30;;;23.20;62.21;96544.53;4234689;33;19910;-82
2022/08/10 01:03:39;;;;;;;;;;;23.80;67.20;;;23.21;62.16;96546.97;4235263;33;19902;-82
2022/08/10 01:06:12;;;;;;;;;;;23.70;67.20;;;23.21;62.45;96541.38;4234847;33;20218;-82
2022/08/10 01:08:45;;;;;;;;;;;23.70;67.30;;;23.20;62.41;96539.75;4234756;33;20096;-82
2022/08/10 01:11:18;;;;;;;;;;;23.70;67.30;;;23.19;62.43;96543.66;4190206;33;19910;-82
2022/08/10 01:13:53;;;;;;;;;;;23.70;67.40;;;23.20;62.38;96539.75;4206929;33;19910;-82
2022/08/10 01:16:25;;;;;;;;;;;23.70;67.40;;;23.20;62.08;96534.16;4183447;33;20073;-82
2022/08/10 01:18:57;;;;;;;;;;;23.70;67.40;;;23.20;62.11;96538.94;4183221;33;19962;-82
2022/08/10 01:22:03;;;;;;;;;;;23.70;67.30;;;23.19;62.31;96531.69;4183409;33;19903;-82
2022/08/10 01:25:16;;;;;;;;;;;23.70;67.20;;;23.19;61.94;96540.06;4183451;33;20106;-82
2022/08/10 01:27:53;;;;;;;;;;;23.70;67.10;;;23.19;62.29;96531.69;4183406;33;20021;-82
2022/08/10 01:30:24;;;;;;;;;;;23.70;67.20;;;23.19;61.86;96531.69;4183109;33;19910;-82
2022/08/10 01:32:59;;;;;;;;;;;23.70;67.30;;;23.19;62.03;96526.13;4206149;33;19910;-81
2022/08/10 01:35:33;;;;;;;;;;;23.70;67.40;;;23.18;62.22;96525.28;4206217;33;20092;-81
2022/08/10 01:38:05;;;;;;;;;;;23.70;67.50;;;23.17;62.21;96523.69;4206449;33;19902;-82
2022/08/10 01:40:36;;;;;;;;;;;23.70;67.40;;;23.17;62.17;96534.84;4206377;33;19910;-82
2022/08/10 01:43:08;;;;;;;;;;;23.70;67.40;;;23.17;62.31;96540.44;4197868;33;19908;-82
2022/08/10 01:45:41;;;;;;;;;;;23.70;67.40;;;23.18;62.42;96538.44;4234532;33;20148;-82
2022/08/10 01:48:29;;;;;;;;;;;23.70;67.40;;;23.18;62.43;96539.25;4234433;33;19909;-82
2022/08/10 01:51:11;;;;;;;;;;;23.70;67.50;;;23.17;62.35;96534.84;4234366;33;20114;-82
2022/08/10 01:53:43;;;;;;;;;;;23.70;67.50;;;23.17;62.18;96534.84;4233642;33;19906;-82
2022/08/10 01:56:13;;;;;;;;;;;23.70;67.50;;;23.16;62.51;96524.84;4234371;33;19902;-82
2022/08/10 01:58:41;;;;;;;;;;;23.70;67.60;;;23.16;62.17;96530.41;4210677;33;19911;-82
2022/08/10 02:01:14;;;;;;;;;;;23.70;67.60;;;23.16;62.27;96535.16;4234223;33;20277;-82
2022/08/10 02:03:42;;;;;;;;;;;23.70;67.60;;;23.16;62.59;96529.59;4208559;33;20022;-82
2022/08/10 02:06:11;;;;;;;;;;;23.70;67.60;;;23.16;62.02;96538.81;4210223;33;20103;-82
2022/08/10 02:08:40;;;;;;;;;;;23.70;67.60;;;23.15;62.62;96534.38;4210755;33;19902;-82
2022/08/10 02:11:08;;;;;;;;;;;23.70;67.70;;;23.16;62.66;96538.81;4210639;33;19902;-83
2022/08/10 02:13:37;;;;;;;;;;;23.70;67.70;;;23.15;62.30;96539.97;4233652;33;20400;-82
2022/08/10 02:16:05;;;;;;;;;;;23.70;67.70;;;23.16;62.38;96535.16;4234057;33;20167;-82
2022/08/10 02:18:35;;;;;;;;;;;23.70;67.80;;;23.15;62.66;96526.00;4234192;33;19902;-82
2022/08/10 02:21:05;;;;;;;;;;;23.70;67.70;;;23.12;62.28;96521.09;4233830;33;19902;-82
2022/08/10 02:23:35;;;;;;;;;;;23.70;67.80;;;23.13;62.54;96523.53;4210169;33;20001;-82
2022/08/10 02:26:04;;;;;;;;;;;23.70;67.70;;;23.14;62.62;96524.34;4234156;33;19921;-82
2022/08/10 02:28:33;;;;;;;;;;;23.70;67.80;;;23.14;62.45;96524.34;4234805;33;20217;-82
2022/08/10 02:31:04;;;;;;;;;;;23.70;67.90;;;23.14;62.62;96532.72;4210412;33;20134;-82
2022/08/10 02:33:33;;;;;;;;;;;23.70;67.90;;;23.13;62.40;96528.31;4209827;33;19910;-82
2022/08/10 02:36:05;;;;;;;;;;;23.70;67.90;;;23.12;62.73;96526.69;4234664;33;19907;-82
2022/08/10 02:38:36;;;;;;;;;;;23.70;67.90;;;23.11;62.38;96525.03;4210379;33;20213;-83
2022/08/10 02:41:10;;;;;;;;;;;23.70;67.90;;;23.12;62.57;96533.06;4210319;33;20326;-82
2022/08/10 02:43:45;;;;;;;;;;;23.70;67.90;;;23.11;62.63;96530.63;4256985;33;20123;-82
2022/08/10 02:46:17;;;;;;;;;;;23.70;67.90;;;23.12;62.40;96532.25;4210288;33;19909;-82
2022/08/10 02:48:46;;;;;;;;;;;23.70;67.90;;;23.12;62.62;96532.25;4233774;33;20102;-82
2022/08/10 02:51:20;;;;;;;;;;;23.60;67.80;;;23.12;62.87;96526.69;4257490;33;19970;-82
2022/08/10 02:53:52;;;;;;;;;;;23.60;67.80;;;23.11;62.65;96525.84;4234207;33;19924;-82
2022/08/10 02:56:23;;;;;;;;;;;23.70;67.90;;;23.11;62.46;96527.84;4233562;33;20000;-82
2022/08/10 02:58:56;;;;;;;;;;;23.60;67.80;;;23.10;62.73;96527.03;4234472;33;19909;-82
2022/08/10 03:01:34;;;;;;;;;;;23.60;67.80;;;23.11;62.60;96525.03;4233488;33;19902;-83
2022/08/10 03:04:06;;;;;;;;;;;23.60;67.80;;;23.09;62.87;96528.19;4281058;33;19902;-83
2022/08/10 03:06:40;;;;;;;;;;;23.60;67.80;;;23.10;62.47;96527.03;4233705;33;20258;-83
2022/08/10 03:09:11;;;;;;;;;;;23.60;67.80;;;23.10;62.83;96526.19;4281613;33;19902;-83
2022/08/10 03:11:40;;;;;;;;;;;23.60;67.80;;;23.09;62.66;96518.97;4233514;33;20107;-82
2022/08/10 03:14:09;;;;;;;;;;;23.60;67.90;;;23.08;62.68;96520.97;4233013;33;19902;-82
2022/08/10 03:16:37;;;;;;;;;;;23.60;67.80;;;23.09;62.35;96536.56;4281225;33;19925;-82
2022/08/10 03:19:06;;;;;;;;;;;23.60;67.90;;;23.09;62.40;96530.16;4233568;33;20026;-83
2022/08/10 03:21:36;;;;;;;;;;;23.60;67.90;;;23.08;62.69;96534.09;4209803;33;19903;-82
2022/08/10 03:24:06;;;;;;;;;;;23.60;67.80;;;23.08;62.58;96543.31;4232912;33;19902;-82
2022/08/10 03:26:34;;;;;;;;;;;23.60;67.80;;;23.08;62.75;96548.06;4233310;33;20118;-83
2022/08/10 03:29:03;;;;;;;;;;;23.60;67.80;;;23.08;62.66;96548.91;4233267;33;19902;-82
2022/08/10 03:31:32;;;;;;;;;;;23.60;67.80;;;23.07;62.46;96541.69;4233126;33;19961;-83
2022/08/10 03:34:02;;;;;;;;;;;23.60;67.90;;;23.08;62.81;96553.66;4232768;33;19907;-83
2022/08/10 03:36:30;;;;;;;;;;;23.60;67.80;;;23.06;62.67;96540.03;4209661;33;19909;-83
2022/08/10 03:39:00;;;;;;;;;;;23.60;67.70;;;23.08;62.73;96550.84;4233316;33;20121;-83
2022/08/10 03:41:32;;;;;;;;;;;23.60;67.80;;;23.07;62.78;96552.00;4233118;33;20065;-82
2022/08/10 03:44:00;;;;;;;;;;;23.60;67.80;;;23.07;62.35;96552.84;4232672;33;20106;-82
2022/08/10 03:46:29;;;;;;;;;;;23.60;67.80;;;23.06;62.58;96556.78;4216931;33;20090;-82
2022/08/10 03:49:02;;;;;;;;;;;23.60;67.80;;;23.07;62.68;96557.59;4205139;33;20082;-82
2022/08/10 03:51:30;;;;;;;;;;;23.60;67.90;;;23.07;62.37;96557.59;4181749;33;20125;-83
2022/08/10 03:54:00;;;;;;;;;;;23.60;67.80;;;23.06;62.66;96558.75;4226050;33;20244;-83
2022/08/10 03:56:29;;;;;;;;;;;23.60;67.70;;;23.07;62.21;96565.97;4209386;33;19910;-83
2022/08/10 03:58:58;;;;;;;;;;;23.60;67.80;;;23.06;62.63;96567.13;4209612;33;20328;-81
2022/08/10 04:01:27;;;;;;;;;;;23.60;67.80;;;23.06;62.63;96561.53;4232987;33;19902;-83
2022/08/10 04:03:55;;;;;;;;;;;23.60;67.90;;;23.05;62.61;96563.53;4232569;33;19903;-82
2022/08/10 04:06:29;;;;;;;;;;;23.60;67.90;;;23.05;62.78;96565.50;4233041;33;19909;-83
2022/08/10 04:09:00;;;;;;;;;;;23.60;67.90;;;23.04;62.70;96559.09;4233927;33;20071;-82
2022/08/10 04:11:28;;;;;;;;;;;23.60;67.80;;;23.05;62.75;96571.09;4233032;33;19902;-81
2022/08/10 04:13:57;;;;;;;;;;;23.60;67.80;;;23.05;62.21;96571.09;4232365;33;19909;-83
2022/08/10 04:16:25;;;;;;;;;;;23.60;67.60;;;23.04;62.44;96572.28;4209248;33;20216;-83
2022/08/10 04:18:54;;;;;;;;;;;23.60;67.80;;;23.05;62.33;96582.25;4233850;33;19902;-82
2022/08/10 04:21:26;;;;;;;;;;;23.60;67.90;;;23.03;62.45;96579.81;4232858;33;20131;-82
2022/08/10 04:23:55;;;;;;;;;;;23.60;67.70;;;23.03;62.75;96579.00;4218160;33;20052;-82
2022/08/10 04:26:25;;;;;;;;;;;23.60;67.80;;;23.04;62.50;96581.44;4181808;33;20088;-82
2022/08/10 04:28:53;;;;;;;;;;;23.60;67.80;;;23.04;62.76;96580.66;4208121;33;20269;-81
2022/08/10 04:31:22;;;;;;;;;;;23.60;67.80;;;23.03;62.39;96579.81;4207031;33;19930;-82
2022/08/10 04:33:51;;;;;;;;;;;23.60;67.90;;;23.05;62.73;96579.47;4195767;33;20358;-81
2022/08/10 04:36:20;;;;;;;;;;;23.60;67.90;;;23.04;62.61;96583.44;4234510;33;19961;-82
2022/08/10 04:38:49;;;;;;;;;;;23.60;67.90;;;23.03;62.95;96584.59;4224293;33;19961;-82
2022/08/10 04:41:18;;;;;;;;;;;23.60;68.00;;;23.03;62.48;96584.59;4207332;33;20012;-81
2022/08/10 04:43:50;;;;;;;;;;;23.60;67.80;;;23.03;62.34;96585.41;4183626;33;20048;-81
2022/08/10 04:46:19;;;;;;;;;;;23.60;67.90;;;23.03;62.57;96584.59;4223172;33;20187;-81
2022/08/10 04:48:48;;;;;;;;;;;23.60;67.90;;;23.03;62.55;96585.41;4236392;33;19903;-81
2022/08/10 04:51:17;;;;;;;;;;;23.60;68.00;;;23.03;62.74;96590.19;4236322;33;19902;-81
2022/08/10 04:53:46;;;;;;;;;;;23.60;68.00;;;23.03;62.89;96584.59;4235750;33;19909;-82
2022/08/10 04:56:15;;;;;;;;;;;23.60;68.00;;;23.02;62.54;96578.19;4235291;33;20229;-81
2022/08/10 04:58:51;;;;;;;;;;;23.60;68.00;;;23.03;62.96;96579.00;4236322;33;19909;-81
2022/08/10 05:01:20;;;;;;;;;;;23.60;68.10;;;23.02;62.87;96583.75;4236368;33;20379;-81
2022/08/10 05:03:48;;;;;;;;;;;23.60;68.10;;;23.02;62.70;96582.97;4235498;33;20221;-82
2022/08/10 05:06:17;;;;;;;;;;;23.60;68.10;;;23.02;62.62;96591.34;4236137;33;20259;-81
2022/08/10 05:08:45;;;;;;;;;;;23.60;68.10;;;23.02;62.96;96588.53;4235897;33;20406;-82
2022/08/10 05:11:14;;;;;;;;;;;23.60;68.10;;;23.02;62.56;96577.38;4234991;33;19902;-82
2022/08/10 05:13:42;;;;;;;;;;;23.60;68.20;;;23.02;62.78;96577.38;4211028;33;20527;-82
2022/08/10 05:16:12;;;;;;;;;;;23.60;68.20;;;23.02;62.84;96582.97;4235035;33;20117;-82
2022/08/10 05:18:41;;;;;;;;;;;23.60;68.10;;;23.03;62.67;96579.00;4234992;33;20038;-82
2022/08/10 05:21:09;;;;;;;;;;;23.60;68.10;;;23.01;62.68;96570.97;4234724;33;20030;-82
2022/08/10 05:23:38;;;;;;;;;;;23.60;67.90;;;23.02;62.84;96577.38;4210603;33;19949;-82
2022/08/10 05:26:07;;;;;;;;;;;23.60;67.80;;;23.01;62.72;96570.16;4234562;33;19962;-83
2022/08/10 05:28:36;;;;;;;;;;;23.60;67.80;;;23.00;62.32;96563.75;4234713;33;20203;-83
2022/08/10 05:31:05;;;;;;;;;;;23.60;67.80;;;23.01;62.59;96570.16;4234639;33;19902;-83
2022/08/10 05:33:35;;;;;;;;;;;23.60;67.90;;;23.00;62.67;96569.31;4233952;33;20007;-82
2022/08/10 05:36:04;;;;;;;;;;;23.60;68.00;;;23.00;62.85;96572.13;4234607;33;20277;-83
2022/08/10 05:38:33;;;;;;;;;;;23.60;68.00;;;22.99;62.80;96565.72;4233584;33;20163;-83
2022/08/10 05:41:02;;;;;;;;;;;23.60;68.00;;;23.01;62.79;96564.56;4210987;33;20127;-83
2022/08/10 05:43:31;;;;;;;;;;;23.60;68.10;;;22.99;62.60;96565.72;4233796;33;19903;-84
2022/08/10 05:45:59;;;;;;;;;;;23.60;67.90;;;22.99;62.89;96562.94;4235452;33;19903;-84
2022/08/10 05:48:28;;;;;;;;;;;23.60;67.90;;;22.98;62.42;96563.25;4210875;33;19909;-85
2022/08/10 05:50:58;;;;;;;;;;;23.60;67.90;;;22.99;62.68;96573.28;4234482;33;20098;-85
2022/08/10 05:53:26;;;;;;;;;;;23.60;68.00;;;22.99;62.84;96570.47;4210257;33;20074;-85
2022/08/10 05:55:55;;;;;;;;;;;23.50;68.00;;;22.99;62.79;96574.09;4210898;33;20252;-84
2022/08/10 05:58:23;;;;;;;;;;;23.50;68.00;;;22.99;63.01;96587.22;4234357;33;19925;-84
2022/08/10 06:00:54;;;;;;;;;;;23.50;68.10;;;23.00;62.56;96588.88;4235321;33;20064;-84
2022/08/10 06:03:25;;;;;;;;;;;23.60;68.00;;;23.01;62.56;96595.28;4210237;33;19903;-85
2022/08/10 06:05:55;;;;;;;;;;;23.60;68.10;;;22.99;63.08;96587.22;4234554;33;19903;-85
2022/08/10 06:08:29;;;;;;;;;;;23.60;68.20;;;22.99;62.94;96587.22;4234100;33;19902;-85
2022/08/10 06:10:58;;;;;;;;;;;23.60;68.00;;;23.00;62.34;96586.06;4257898;33;19910;-85
2022/08/10 06:16:13;;;;;;;;;;;23.60;68.00;;;22.98;62.50;96582.81;4234191;33;20125;-85
2022/08/10 06:18:42;;;;;;;;;;;23.50;68.00;;;22.98;62.61;96577.22;4282084;33;20125;-85
2022/08/10 06:21:10;;;;;;;;;;;23.50;68.00;;;22.98;62.97;96580.84;4210551;33;20312;-85
2022/08/10 06:23:40;;;;;;;;;;;23.50;68.00;;;22.97;62.67;96587.59;4210001;33;19902;-85
2022/08/10 06:26:09;;;;;;;;;;;23.50;68.00;;;22.98;62.81;96588.38;4235010;33;19918;-85
2022/08/10 06:28:40;;;;;;;;;;;23.50;68.00;;;22.98;62.49;96589.22;4210542;33;19909;-85
2022/08/10 06:31:08;;;;;;;;;;;23.60;68.00;;;22.99;62.99;96588.06;4234058;33;20248;-86
2022/08/10 06:33:38;;;;;;;;;;;23.60;68.10;;;22.98;62.94;96588.38;4209827;33;20122;-86
2022/08/10 06:36:08;;;;;;;;;;;23.60;68.10;;;22.98;63.04;96589.22;4210354;33;20140;-85
2022/08/10 06:38:36;;;;;;;;;;;23.50;68.20;;;22.98;62.84;96583.63;4233903;33;20010;-84
2022/08/10 06:41:10;;;;;;;;;;;23.50;68.10;;;22.98;63.02;96589.22;4233807;33;19909;-85
2022/08/10 06:43:41;;;;;;;;;;;23.60;68.10;;;22.99;62.81;96590.03;4209934;33;19960;-85
2022/08/10 06:46:12;;;;;;;;;;;23.60;68.20;;;22.99;62.74;96588.06;4272211;33;20051;-86
2022/08/10 06:48:47;;;;;;;;;;;23.60;68.10;;;22.99;62.74;96590.84;4210571;33;20156;-86
2022/08/10 06:51:18;;;;;;;;;;;23.60;68.10;;;23.01;62.98;96592.50;4210073;33;20131;-84
2022/08/10 06:53:48;;;;;;;;;;;23.60;68.90;;;23.01;63.10;96598.88;4209857;33;19909;-85
2022/08/10 06:56:20;;;;;;;;;;;23.60;68.10;;;23.01;62.76;96593.28;4210269;33;20038;-85
2022/08/10 06:58:53;;;;;;;;;;;23.60;68.10;;;22.99;62.50;96590.84;4233666;33;20009;-85
2022/08/10 07:01:23;;;;;;;;;;;23.60;68.00;;;23.01;62.98;96598.88;4233468;33;19909;-85
2022/08/10 07:03:56;;;;;;;;;;;23.60;68.00;;;23.02;63.02;96591.34;4233096;33;19902;-85
2022/08/10 07:06:25;;;;;;;;;;;23.60;68.10;;;23.02;62.39;96594.13;4233722;33;20102;-86
2022/08/10 07:08:53;;;;;;;;;;;23.60;67.90;;;23.01;62.87;96593.28;4233629;33;19983;-86
2022/08/10 07:11:23;;;;;;;;;;;23.60;67.90;;;23.01;62.54;96590.50;4233403;33;20004;-85
2022/08/10 07:13:53;;;;;;;;;;;23.60;67.80;;;22.99;62.35;96596.44;4232901;33;20306;-86
2022/08/10 07:16:21;;;;;;;;;;;23.60;67.60;;;23.01;62.40;96598.06;4233553;33;20051;-87
2022/08/10 07:18:50;;;;;;;;;;;23.60;67.50;;;22.99;62.71;96604.81;4209900;33;20155;-86
2022/08/10 07:21:19;;;;;;;;;;;23.60;67.70;;;23.00;62.25;96600.03;4224544;33;20149;-86
2022/08/10 07:23:47;;;;;;;;;;;23.60;67.80;;;22.98;62.59;96600.38;4204784;33;20131;-85
2022/08/10 07:26:16;;;;;;;;;;;23.60;67.80;;;22.99;62.85;96602.03;4212381;33;19902;-86
2022/08/10 07:28:47;;;;;;;;;;;23.60;67.80;;;22.99;62.69;96596.44;4210080;33;19902;-86
2022/08/10 07:31:16;;;;;;;;;;;23.60;67.70;;;23.01;62.35;96606.44;4209725;33;19909;-86
2022/08/10 07:33:45;;;;;;;;;;;23.60;67.60;;;23.01;62.45;96609.25;4209352;33;20067;-86
2022/08/10 07:36:17;;;;;;;;;;;23.50;67.40;;;23.01;62.40;96614.81;4209595;33;19902;-85
2022/08/10 07:38:46;;;;;;;;;;;23.60;67.40;;;23.01;62.36;96612.03;4209777;33;19982;-85
2022/08/10 07:41:15;;;;;;;;;;;23.60;67.60;;;22.99;62.49;96610.41;4234305;33;20119;-85
2022/08/10 07:43:43;;;;;;;;;;;23.60;67.80;;;23.01;62.64;96612.03;4208993;33;20276;-85
2022/08/10 07:46:16;;;;;;;;;;;23.60;67.80;;;23.01;62.35;96609.25;4209654;33;20133;-85
2022/08/10 07:48:48;;;;;;;;;;;23.60;67.70;;;23.01;62.39;96612.03;4233273;33;20132;-85
2022/08/10 07:51:18;;;;;;;;;;;23.60;67.70;;;23.01;62.07;96614.81;4233149;33;19910;-85
2022/08/10 07:53:50;;;;;;;;;;;23.60;67.10;;;22.99;61.97;96610.41;4209031;33;19902;-86
2022/08/10 07:56:19;;;;;;;;;;;23.60;67.00;;;23.01;61.94;96610.03;4233041;33;20229;-86
2022/08/10 07:58:50;;;;;;;;;;;23.60;67.20;;;23.01;61.94;96612.84;4233008;33;20123;-86
2022/08/10 08:01:21;;;;;;;;;;;23.60;67.00;;;23.02;61.74;96611.69;4209774;33;20348;-86
2022/08/10 08:03:50;;;;;;;;;;;23.60;66.70;;;23.03;61.58;96606.94;4235024;33;19902;-85
2022/08/10 08:06:18;;;;;;;;;;;23.60;66.60;;;23.06;61.28;96611.81;4235649;33;20001;-85
2022/08/10 08:08:47;;;;;;;;;;;23.60;67.50;;;23.07;61.40;96608.69;4212202;33;20283;-85
2022/08/10 08:11:16;;;;;;;;;;;23.60;66.50;;;23.10;62.24;96607.19;4236521;33;19902;-84
2022/08/10 08:13:44;;;;;;;;;;;23.60;67.40;;;23.09;61.87;96605.53;4211549;33;19944;-84
2022/08/10 08:16:13;;;;;;;;;;;23.70;67.00;;;23.12;62.05;96604.88;4235560;33;20103;-85
2022/08/10 08:18:46;;;;;;;;;;;23.70;67.40;;;23.12;61.97;96604.88;4211845;33;20349;-85
2022/08/10 08:21:46;;;;;;;;;;;23.70;67.00;;;23.11;61.77;96597.66;4235452;33;20155;-85
2022/08/10 08:24:15;;;;;;;;;;;23.70;66.80;;;23.14;62.02;96613.72;4234799;33;20090;-85
2022/08/10 08:26:43;;;;;;;;;;;23.70;67.20;;;23.14;62.20;96602.56;4235479;33;20133;-84
2022/08/10 08:29:12;;;;;;;;;;;23.70;67.40;;;23.13;62.92;96607.31;4235460;33;20147;-85
2022/08/10 08:31:41;;;;;;;;;;;23.70;67.90;;;23.16;62.34;96611.41;4235353;33;20345;-85
2022/08/10 08:34:12;;;;;;;;;;;23.70;67.30;;;23.16;62.96;96600.25;4211090;33;20060;-85
2022/08/10 08:36:43;;;;;;;;;;;23.70;67.60;;;23.16;62.63;96599.41;4236302;33;19903;-85
2022/08/10 08:39:12;;;;;;;;;;;23.70;68.00;;;23.17;62.33;96601.03;4226718;28;19903;-90
2022/08/10 08:41:57;;;;;;;;;;;23.70;67.30;;;23.18;62.38;96603.47;4208686;33;19961;-90
2022/08/10 08:44:34;;;;;;;;;;;23.70;67.60;;;23.20;62.94;96605.97;4185408;33;19910;-91
2022/08/10 08:47:17;;;;;;;;;;;23.80;67.90;;;23.21;62.12;96605.63;4208291;33;20233;-92
2022/08/10 08:49:56;;;;;;;;;;;23.80;67.20;;;23.25;62.19;96598.19;4185268;33;19903;-91
2022/08/10 08:52:33;;;;;;;;;;;23.80;67.70;;;23.29;61.84;96587.97;4185037;33;19909;-92
2022/08/10 08:55:17;;;;;;;;;;;23.80;67.20;;;23.37;62.13;96605.78;4185268;33;19903;-91
2022/08/10 08:57:49;;;;;;;;;;;23.90;67.40;;;23.38;62.20;96606.63;4185242;33;19902;-90
2022/08/10 09:00:23;;;;;;;;;;;23.90;67.30;;;23.39;61.98;96602.66;4208244;33;19903;-91
2022/08/10 09:03:34;;;;;;;;;;;23.90;67.20;;;23.40;62.37;96607.09;4207987;33;19902;-91
2022/08/10 09:06:16;;;;;;;;;;;23.90;67.30;;;23.37;62.00;96604.97;4170770;33;19912;-91
2022/08/10 09:09:10;;;;;;;;;;;23.90;67.30;;;23.36;62.08;96603.34;4185149;33;20141;-91
2022/08/10 09:11:51;;;;;;;;;;;23.90;67.30;;;23.35;62.46;96612.88;4185100;33;19903;-89
2022/08/10 09:14:24;;;;;;;;;;;23.90;67.50;;;23.35;62.03;96604.50;4184299;33;19902;-90
2022/08/10 09:16:57;;;;;;;;;;;23.90;67.40;;;23.33;61.96;96598.44;4184842;33;20052;-90
2022/08/10 09:19:32;;;;;;;;;;;23.90;67.40;;;23.29;62.48;96599.16;4184882;33;19987;-91
2022/08/10 09:22:05;;;;;;;;;;;23.90;67.40;;;23.33;62.25;96601.25;4184879;33;19926;-90
2022/08/10 09:24:42;;;;;;;;;;;23.90;67.50;;;23.32;62.31;96602.41;4207956;33;20348;-90
2022/08/10 09:27:18;;;;;;;;;;;23.90;68.40;;;23.31;62.36;96597.97;4207993;33;20145;-91
2022/08/10 09:29:53;;;;;;;;;;;23.90;67.40;;;23.31;62.11;96607.19;4207886;33;20063;-91
2022/08/10 09:32:33;;;;;;;;;;;23.90;67.40;;;23.31;62.05;96603.56;4184459;33;19903;-91
2022/08/10 09:35:16;;;;;;;;;;;23.90;67.40;;;23.30;62.07;96594.38;4184681;33;20003;-90
2022/08/10 09:37:49;;;;;;;;;;;23.90;67.50;;;23.29;62.48;96604.75;4184583;33;19918;-89
2022/08/10 09:40:24;;;;;;;;;;;23.90;67.60;;;23.30;62.40;96602.75;4207843;33;19902;-90
2022/08/10 09:43:03;;;;;;;;;;;23.90;67.50;;;23.29;62.47;96599.16;4207508;33;20112;-90
2022/08/10 09:45:38;;;;;;;;;;;23.90;67.60;;;23.29;62.50;96596.38;4207661;33;20108;-89
2022/08/10 09:48:13;;;;;;;;;;;23.80;67.60;;;23.28;62.68;96605.91;4207632;33;19903;-90
2022/08/10 09:50:55;;;;;;;;;;;23.80;67.60;;;23.27;62.35;96600.63;4184450;33;20378;-90
2022/08/10 09:53:42;;;;;;;;;;;23.80;67.60;;;23.28;62.18;96602.28;4184045;33;19910;-90
2022/08/10 09:56:21;;;;;;;;;;;23.80;67.60;;;23.28;62.72;96597.53;4207477;33;19910;-89
2022/08/10 09:58:56;;;;;;;;;;;23.80;67.60;;;23.28;62.26;96591.09;4184168;33;19902;-89
2022/08/10 10:01:27;;;;;;;;;;;23.80;67.50;;;23.27;62.32;96595.88;4184105;33;20071;-89
2022/08/10 10:04:02;;;;;;;;;;;23.80;67.50;;;23.28;62.39;96597.53;4183667;33;20102;-90
2022/08/10 10:06:38;;;;;;;;;;;23.80;67.60;;;23.28;62.45;96596.69;4183937;33;19903;-89
2022/08/10 10:09:12;;;;;;;;;;;23.80;67.60;;;23.27;62.59;96600.63;4183959;33;19903;-89
2022/08/10 10:11:49;;;;;;;;;;;23.80;67.40;;;23.25;62.55;96589.81;4183820;33;20041;-89
2022/08/10 10:14:25;;;;;;;;;;;23.80;67.40;;;23.27;62.11;96606.22;4206726;33;19903;-90
2022/08/10 10:17:02;;;;;;;;;;;23.80;67.40;;;23.25;62.18;96598.19;4183676;33;20005;-89
2022/08/10 10:19:44;;;;;;;;;;;23.80;67.20;;;23.23;62.25;96594.94;4183795;33;19903;-89
2022/08/10 10:22:40;;;;;;;;;;;23.80;67.30;;;23.25;62.32;96595.41;4183236;33;20089;-89
2022/08/10 10:25:18;;;;;;;;;;;23.80;67.40;;;23.25;62.56;96591.78;4206096;33;20031;-89
2022/08/10 10:27:53;;;;;;;;;;;23.80;67.60;;;23.24;62.34;96585.41;4183216;33;19910;-89
2022/08/10 10:30:22;;;;;;;;;;;23.80;67.50;;;23.24;62.64;96593.78;4207524;33;20069;-89
2022/08/10 10:32:57;;;;;;;;;;;23.80;67.60;;;23.23;62.68;96588.53;4183099;33;20103;-89
2022/08/10 10:35:37;;;;;;;;;;;23.80;67.70;;;23.22;62.37;96595.28;4206495;33;19910;-89
2022/08/10 10:38:09;;;;;;;;;;;23.80;67.60;;;23.20;62.47;96592.81;4183043;33;19902;-89
2022/08/10 10:40:47;;;;;;;;;;;23.80;67.50;;;23.19;62.66;96591.16;4206406;33;20132;-89
2022/08/10 10:43:30;;;;;;;;;;;23.80;67.70;;;23.21;62.52;96596.44;4206064;33;19982;-88
2022/08/10 10:46:06;;;;;;;;;;;23.80;67.60;;;23.19;61.92;96593.94;4183328;33;19992;-89
2022/08/10 10:48:41;;;;;;;;;;;23.70;67.10;;;23.18;62.49;96597.91;4206268;33;19957;-89
2022/08/10 10:51:15;;;;;;;;;;;23.70;67.30;;;23.16;62.49;96599.41;4182922;33;19909;-89
2022/08/10 10:53:49;;;;;;;;;;;23.80;67.80;;;23.16;62.27;96600.25;4205924;33;20158;-89
2022/08/10 10:56:26;;;;;;;;;;;23.70;67.70;;;23.16;62.19;96603.03;4182817;33;19918;-89
2022/08/10 10:59:04;;;;;;;;;;;23.70;67.40;;;23.16;62.57;96596.63;4182925;33;19922;-88
2022/08/10 11:01:38;;;;;;;;;;;23.70;67.80;;;23.13;62.38;96598.94;4206183;33;20047;-89
2022/08/10 11:04:16;;;;;;;;;;;23.70;67.70;;;23.12;62.28;96602.06;4182666;33;19998;-89
2022/08/10 11:06:54;;;;;;;;;;;23.70;67.70;;;23.10;62.40;96601.59;4182917;33;19907;-88
2022/08/10 11:09:26;;;;;;;;;;;23.70;67.70;;;23.09;62.63;96600.78;4206091;33;20140;-89
2022/08/10 11:11:59;;;;;;;;;;;23.70;67.60;;;23.09;62.41;96602.75;4182755;33;19981;-88
2022/08/10 11:14:31;;;;;;;;;;;23.60;67.60;;;23.08;62.49;96609.50;4182763;33;20026;-89
2022/08/10 11:17:03;;;;;;;;;;;23.60;67.80;;;23.07;62.83;96607.88;4182768;33;20214;-89
2022/08/10 11:19:40;;;;;;;;;;;23.60;67.90;;;23.07;62.12;96607.88;4182896;33;20139;-90
2022/08/10 11:22:14;;;;;;;;;;;23.60;67.60;;;23.03;62.15;96604.13;4205810;33;19902;-89
2022/08/10 11:24:52;;;;;;;;;;;23.60;67.20;;;23.03;61.92;96604.13;4182846;33;19927;-89
2022/08/10 11:27:32;;;;;;;;;;;23.60;67.10;;;23.03;61.93;96616.09;4182611;33;19902;-89
2022/08/10 11:30:05;;;;;;;;;;;23.60;67.10;;;23.03;61.78;96606.94;4182577;33;20267;-88
2022/08/10 11:32:43;;;;;;;;;;;23.60;67.10;;;23.01;61.59;96601.66;4182355;33;20060;-88
2022/08/10 11:35:20;;;;;;;;;;;23.60;66.80;;;23.01;61.80;96610.03;4182610;33;20129;-88
2022/08/10 11:37:57;;;;;;;;;;;23.60;67.00;;;23.02;62.00;96610.88;4182432;33;20104;-88
2022/08/10 11:40:30;;;;;;;;;;;23.60;67.40;;;23.02;62.42;96603.31;4182674;33;19902;-89
2022/08/10 11:43:10;;;;;;;;;;;23.60;67.50;;;23.02;62.75;96613.69;4182229;33;19902;-89